sensor_id;sensor_type;location;lat;lon;timestamp;temperature;humidity
66594;DHT22;53450;42.584;23.366;2023-11-18T00:01:25;4.09;83.97
66594;DHT22;53450;42.584;23.366;2023-11-18T00:03:51;4.02;83.69
66594;DHT22;53450;42.584;23.366;2023-11-18T00:06:16;3.98;82.79
66594;DHT22;53450;42.584;23.366;2023-11-18T00:08:42;3.96;83.84
66594;DHT22;53450;42.584;23.366;2023-11-18T00:11:08;3.89;82.39
66594;DHT22;53450;42.584;23.366;2023-11-18T00:13:36;3.88;82.85
66594;DHT22;53450;42.584;23.366;2023-11-18T00:16:03;3.79;83.19
66594;DHT22;53450;42.584;23.366;2023-11-18T00:18:29;3.77;84.19
66594;DHT22;53450;42.584;23.366;2023-11-18T00:20:55;3.75;83.02
66594;DHT22;53450;42.584;23.366;2023-11-18T00:23:22;3.71;82.39
66594;DHT22;53450;42.584;23.366;2023-11-18T00:25:48;3.65;83.29
66594;DHT22;53450;42.584;23.366;2023-11-18T00:28:13;3.65;82.48
66594;DHT22;53450;42.584;23.366;2023-11-18T00:30:39;3.68;82.03
66594;DHT22;53450;42.584;23.366;2023-11-18T00:33:05;3.65;82.58
66594;DHT22;53450;42.584;23.366;2023-11-18T00:35:30;3.64;82.63
66594;DHT22;53450;42.584;23.366;2023-11-18T00:37:58;3.61;82.57
66594;DHT22;53450;42.584;23.366;2023-11-18T00:40:25;3.65;82.07
66594;DHT22;53450;42.584;23.366;2023-11-18T00:42:50;3.58;82.55
66594;DHT22;53450;42.584;23.366;2023-11-18T00:45:16;3.58;82.35
66594;DHT22;53450;42.584;23.366;2023-11-18T00:47:41;3.53;82.85
66594;DHT22;53450;42.584;23.366;2023-11-18T00:50:07;3.57;82.75
66594;DHT22;53450;42.584;23.366;2023-11-18T00:52:36;3.55;83.32
66594;DHT22;53450;42.584;23.366;2023-11-18T00:55:07;3.54;83.18
66594;DHT22;53450;42.584;23.366;2023-11-18T00:57:34;3.54;82.64
66594;DHT22;53450;42.584;23.366;2023-11-18T01:00:00;3.55;83.43
66594;DHT22;53450;42.584;23.366;2023-11-18T01:02:26;3.48;83.93
66594;DHT22;53450;42.584;23.366;2023-11-18T01:04:52;3.45;84.15
66594;DHT22;53450;42.584;23.366;2023-11-18T01:07:17;3.38;84.64
66594;DHT22;53450;42.584;23.366;2023-11-18T01:09:43;3.44;84.72
66594;DHT22;53450;42.584;23.366;2023-11-18T01:12:09;3.43;84.35
66594;DHT22;53450;42.584;23.366;2023-11-18T01:14:38;3.50;83.59
66594;DHT22;53450;42.584;23.366;2023-11-18T01:17:08;3.51;82.85
66594;DHT22;53450;42.584;23.366;2023-11-18T01:19:37;3.51;83.11
66594;DHT22;53450;42.584;23.366;2023-11-18T01:22:03;3.45;83.57
66594;DHT22;53450;42.584;23.366;2023-11-18T01:24:32;3.36;83.58
66594;DHT22;53450;42.584;23.366;2023-11-18T01:26:58;3.47;83.88
66594;DHT22;53450;42.584;23.366;2023-11-18T01:29:27;3.38;83.38
66594;DHT22;53450;42.584;23.366;2023-11-18T01:31:52;3.34;83.35
66594;DHT22;53450;42.584;23.366;2023-11-18T01:34:21;3.30;83.88
66594;DHT22;53450;42.584;23.366;2023-11-18T01:36:47;3.36;84.57
66594;DHT22;53450;42.584;23.366;2023-11-18T01:39:15;3.24;83.97
66594;DHT22;53450;42.584;23.366;2023-11-18T01:41:43;3.24;84.19
66594;DHT22;53450;42.584;23.366;2023-11-18T01:44:09;3.24;83.00
66594;DHT22;53450;42.584;23.366;2023-11-18T01:46:35;3.24;83.11
66594;DHT22;53450;42.584;23.366;2023-11-18T01:49:02;3.20;83.60
66594;DHT22;53450;42.584;23.366;2023-11-18T01:51:29;3.15;83.38
66594;DHT22;53450;42.584;23.366;2023-11-18T01:53:56;3.02;83.17
66594;DHT22;53450;42.584;23.366;2023-11-18T01:56:25;3.02;83.32
66594;DHT22;53450;42.584;23.366;2023-11-18T01:58:52;3.03;83.61
66594;DHT22;53450;42.584;23.366;2023-11-18T02:01:19;2.96;83.74
66594;DHT22;53450;42.584;23.366;2023-11-18T02:03:44;3.02;82.84
66594;DHT22;53450;42.584;23.366;2023-11-18T02:06:10;2.97;83.09
66594;DHT22;53450;42.584;23.366;2023-11-18T02:08:36;2.95;83.86
66594;DHT22;53450;42.584;23.366;2023-11-18T02:11:13;2.95;83.60
66594;DHT22;53450;42.584;23.366;2023-11-18T02:13:42;2.91;84.03
66594;DHT22;53450;42.584;23.366;2023-11-18T02:16:10;2.85;83.85
66594;DHT22;53450;42.584;23.366;2023-11-18T02:18:38;2.81;84.02
66594;DHT22;53450;42.584;23.366;2023-11-18T02:21:07;2.81;84.56
66594;DHT22;53450;42.584;23.366;2023-11-18T02:23:33;2.82;84.23
66594;DHT22;53450;42.584;23.366;2023-11-18T02:25:59;2.76;84.23
66594;DHT22;53450;42.584;23.366;2023-11-18T02:28:27;2.79;83.71
66594;DHT22;53450;42.584;23.366;2023-11-18T02:30:56;2.84;84.48
66594;DHT22;53450;42.584;23.366;2023-11-18T02:33:37;2.75;84.57
66594;DHT22;53450;42.584;23.366;2023-11-18T02:36:33;2.59;84.77
66594;DHT22;53450;42.584;23.366;2023-11-18T02:39:21;2.55;83.34
66594;DHT22;53450;42.584;23.366;2023-11-18T02:41:51;2.51;83.86
66594;DHT22;53450;42.584;23.366;2023-11-18T02:44:18;2.47;82.98
66594;DHT22;53450;42.584;23.366;2023-11-18T02:46:46;2.52;82.84
66594;DHT22;53450;42.584;23.366;2023-11-18T02:49:11;2.52;82.59
66594;DHT22;53450;42.584;23.366;2023-11-18T02:51:37;2.61;81.76
66594;DHT22;53450;42.584;23.366;2023-11-18T02:54:07;2.61;81.18
66594;DHT22;53450;42.584;23.366;2023-11-18T02:56:39;2.68;79.53
66594;DHT22;53450;42.584;23.366;2023-11-18T02:59:05;2.76;79.38
66594;DHT22;53450;42.584;23.366;2023-11-18T03:01:32;2.75;80.07
66594;DHT22;53450;42.584;23.366;2023-11-18T03:04:01;2.64;79.45
66594;DHT22;53450;42.584;23.366;2023-11-18T03:06:27;2.58;80.76
66594;DHT22;53450;42.584;23.366;2023-11-18T03:08:53;2.45;80.88
66594;DHT22;53450;42.584;23.366;2023-11-18T03:11:20;2.47;80.04
66594;DHT22;53450;42.584;23.366;2023-11-18T03:13:45;2.47;80.70
66594;DHT22;53450;42.584;23.366;2023-11-18T03:16:14;2.49;81.11
66594;DHT22;53450;42.584;23.366;2023-11-18T03:18:41;2.48;80.82
66594;DHT22;53450;42.584;23.366;2023-11-18T03:21:14;2.31;80.94
66594;DHT22;53450;42.584;23.366;2023-11-18T03:23:41;2.17;81.18
66594;DHT22;53450;42.584;23.366;2023-11-18T03:26:07;2.23;81.90
66594;DHT22;53450;42.584;23.366;2023-11-18T03:28:33;2.14;79.99
66594;DHT22;53450;42.584;23.366;2023-11-18T03:30:59;2.10;80.59
66594;DHT22;53450;42.584;23.366;2023-11-18T03:33:26;2.05;80.90
66594;DHT22;53450;42.584;23.366;2023-11-18T03:35:52;2.03;80.75
66594;DHT22;53450;42.584;23.366;2023-11-18T03:38:18;2.03;81.73
66594;DHT22;53450;42.584;23.366;2023-11-18T03:40:43;1.95;79.83
66594;DHT22;53450;42.584;23.366;2023-11-18T03:43:11;2.02;80.03
66594;DHT22;53450;42.584;23.366;2023-11-18T03:45:40;2.10;78.67
66594;DHT22;53450;42.584;23.366;2023-11-18T03:48:06;2.18;79.02
66594;DHT22;53450;42.584;23.366;2023-11-18T03:50:36;2.16;79.41
66594;DHT22;53450;42.584;23.366;2023-11-18T03:53:01;2.10;78.00
66594;DHT22;53450;42.584;23.366;2023-11-18T03:55:29;2.11;78.78
66594;DHT22;53450;42.584;23.366;2023-11-18T03:57:55;1.99;79.92
66594;DHT22;53450;42.584;23.366;2023-11-18T04:00:22;1.90;78.98
66594;DHT22;53450;42.584;23.366;2023-11-18T04:02:48;1.83;79.44
66594;DHT22;53450;42.584;23.366;2023-11-18T04:05:13;1.72;79.81
66594;DHT22;53450;42.584;23.366;2023-11-18T04:07:39;1.65;80.06
66594;DHT22;53450;42.584;23.366;2023-11-18T04:10:08;1.60;79.44
66594;DHT22;53450;42.584;23.366;2023-11-18T04:12:36;1.58;79.37
66594;DHT22;53450;42.584;23.366;2023-11-18T04:15:02;1.59;79.84
66594;DHT22;53450;42.584;23.366;2023-11-18T04:17:30;1.60;79.43
66594;DHT22;53450;42.584;23.366;2023-11-18T04:19:56;1.59;80.00
66594;DHT22;53450;42.584;23.366;2023-11-18T04:22:22;1.41;80.79
66594;DHT22;53450;42.584;23.366;2023-11-18T04:24:48;1.31;80.73
66594;DHT22;53450;42.584;23.366;2023-11-18T04:27:13;1.17;81.02
66594;DHT22;53450;42.584;23.366;2023-11-18T04:29:39;1.11;81.39
66594;DHT22;53450;42.584;23.366;2023-11-18T04:32:06;1.13;81.15
66594;DHT22;53450;42.584;23.366;2023-11-18T04:34:35;1.13;81.28
66594;DHT22;53450;42.584;23.366;2023-11-18T04:37:04;1.07;81.92
66594;DHT22;53450;42.584;23.366;2023-11-18T04:39:34;0.93;81.73
66594;DHT22;53450;42.584;23.366;2023-11-18T04:42:00;0.86;82.23
66594;DHT22;53450;42.584;23.366;2023-11-18T04:44:28;0.89;81.80
66594;DHT22;53450;42.584;23.366;2023-11-18T04:46:57;0.83;81.63
66594;DHT22;53450;42.584;23.366;2023-11-18T04:49:22;0.87;82.26
66594;DHT22;53450;42.584;23.366;2023-11-18T04:51:48;0.80;82.05
66594;DHT22;53450;42.584;23.366;2023-11-18T04:54:13;0.76;82.41
66594;DHT22;53450;42.584;23.366;2023-11-18T04:56:39;0.80;81.50
66594;DHT22;53450;42.584;23.366;2023-11-18T04:59:05;0.76;81.40
66594;DHT22;53450;42.584;23.366;2023-11-18T05:01:31;0.69;81.59
66594;DHT22;53450;42.584;23.366;2023-11-18T05:03:57;0.73;81.36
66594;DHT22;53450;42.584;23.366;2023-11-18T05:06:24;0.72;81.11
66594;DHT22;53450;42.584;23.366;2023-11-18T05:08:49;0.73;80.59
66594;DHT22;53450;42.584;23.366;2023-11-18T05:11:15;0.75;80.22
66594;DHT22;53450;42.584;23.366;2023-11-18T05:13:41;0.80;80.90
66594;DHT22;53450;42.584;23.366;2023-11-18T05:16:07;0.81;80.18
66594;DHT22;53450;42.584;23.366;2023-11-18T05:18:32;0.84;79.42
66594;DHT22;53450;42.584;23.366;2023-11-18T05:21:03;0.87;79.02
66594;DHT22;53450;42.584;23.366;2023-11-18T05:23:31;0.86;79.03
66594;DHT22;53450;42.584;23.366;2023-11-18T05:25:57;0.89;78.97
66594;DHT22;53450;42.584;23.366;2023-11-18T05:28:24;0.87;79.26
66594;DHT22;53450;42.584;23.366;2023-11-18T05:30:50;0.80;79.10
66594;DHT22;53450;42.584;23.366;2023-11-18T05:33:16;0.84;79.31
66594;DHT22;53450;42.584;23.366;2023-11-18T05:35:43;0.84;78.04
66594;DHT22;53450;42.584;23.366;2023-11-18T05:38:17;0.90;77.86
66594;DHT22;53450;42.584;23.366;2023-11-18T05:40:45;0.96;77.36
66594;DHT22;53450;42.584;23.366;2023-11-18T05:43:23;0.96;77.11
66594;DHT22;53450;42.584;23.366;2023-11-18T05:45:49;1.01;76.75
66594;DHT22;53450;42.584;23.366;2023-11-18T05:48:34;1.00;76.67
66594;DHT22;53450;42.584;23.366;2023-11-18T05:50:59;1.01;76.87
66594;DHT22;53450;42.584;23.366;2023-11-18T05:53:25;1.03;77.18
66594;DHT22;53450;42.584;23.366;2023-11-18T05:55:50;1.00;76.62
66594;DHT22;53450;42.584;23.366;2023-11-18T05:58:16;1.00;77.68
66594;DHT22;53450;42.584;23.366;2023-11-18T06:00:41;1.01;77.17
66594;DHT22;53450;42.584;23.366;2023-11-18T06:03:07;1.01;76.83
66594;DHT22;53450;42.584;23.366;2023-11-18T06:05:32;1.03;77.26
66594;DHT22;53450;42.584;23.366;2023-11-18T06:08:00;1.04;76.82
66594;DHT22;53450;42.584;23.366;2023-11-18T06:10:26;1.11;75.79
66594;DHT22;53450;42.584;23.366;2023-11-18T06:12:51;1.14;76.35
66594;DHT22;53450;42.584;23.366;2023-11-18T06:15:18;1.17;76.14
66594;DHT22;53450;42.584;23.366;2023-11-18T06:17:44;1.11;76.16
66594;DHT22;53450;42.584;23.366;2023-11-18T06:20:11;1.11;76.42
66594;DHT22;53450;42.584;23.366;2023-11-18T06:22:39;1.16;76.62
66594;DHT22;53450;42.584;23.366;2023-11-18T06:25:05;1.07;75.94
66594;DHT22;53450;42.584;23.366;2023-11-18T06:27:33;0.98;77.05
66594;DHT22;53450;42.584;23.366;2023-11-18T06:29:58;0.94;77.68
66594;DHT22;53450;42.584;23.366;2023-11-18T06:32:24;0.91;77.58
66594;DHT22;53450;42.584;23.366;2023-11-18T06:34:52;0.98;76.35
66594;DHT22;53450;42.584;23.366;2023-11-18T06:37:19;1.07;75.40
66594;DHT22;53450;42.584;23.366;2023-11-18T06:39:45;1.13;75.11
66594;DHT22;53450;42.584;23.366;2023-11-18T06:42:13;1.20;75.30
66594;DHT22;53450;42.584;23.366;2023-11-18T06:44:40;1.14;74.97
66594;DHT22;53450;42.584;23.366;2023-11-18T06:47:05;1.23;74.90
66594;DHT22;53450;42.584;23.366;2023-11-18T06:49:32;1.28;74.72
66594;DHT22;53450;42.584;23.366;2023-11-18T06:52:03;1.37;73.61
66594;DHT22;53450;42.584;23.366;2023-11-18T06:54:29;1.37;73.84
66594;DHT22;53450;42.584;23.366;2023-11-18T06:56:56;1.47;73.35
66594;DHT22;53450;42.584;23.366;2023-11-18T06:59:21;1.45;72.87
66594;DHT22;53450;42.584;23.366;2023-11-18T07:01:47;1.38;72.72
66594;DHT22;53450;42.584;23.366;2023-11-18T07:04:13;1.41;73.35
66594;DHT22;53450;42.584;23.366;2023-11-18T07:06:39;1.35;73.28
66594;DHT22;53450;42.584;23.366;2023-11-18T07:09:06;1.31;73.49
66594;DHT22;53450;42.584;23.366;2023-11-18T07:11:58;1.31;73.73
66594;DHT22;53450;42.584;23.366;2023-11-18T07:14:23;1.38;73.77
66594;DHT22;53450;42.584;23.366;2023-11-18T07:16:51;1.42;73.29
66594;DHT22;53450;42.584;23.366;2023-11-18T07:19:16;1.49;74.01
66594;DHT22;53450;42.584;23.366;2023-11-18T07:21:49;1.51;72.88
66594;DHT22;53450;42.584;23.366;2023-11-18T07:24:15;1.51;72.90
66594;DHT22;53450;42.584;23.366;2023-11-18T07:26:42;1.59;72.83
66594;DHT22;53450;42.584;23.366;2023-11-18T07:29:12;1.58;72.59
66594;DHT22;53450;42.584;23.366;2023-11-18T07:31:37;1.49;73.75
66594;DHT22;53450;42.584;23.366;2023-11-18T07:34:04;1.47;74.17
66594;DHT22;53450;42.584;23.366;2023-11-18T07:36:31;1.39;74.65
66594;DHT22;53450;42.584;23.366;2023-11-18T07:38:57;1.39;75.44
66594;DHT22;53450;42.584;23.366;2023-11-18T07:41:27;1.34;75.49
66594;DHT22;53450;42.584;23.366;2023-11-18T07:43:53;1.34;76.06
66594;DHT22;53450;42.584;23.366;2023-11-18T07:46:20;1.31;75.60
66594;DHT22;53450;42.584;23.366;2023-11-18T07:48:51;1.24;75.96
66594;DHT22;53450;42.584;23.366;2023-11-18T07:51:20;1.26;76.21
66594;DHT22;53450;42.584;23.366;2023-11-18T07:53:50;1.27;76.43
66594;DHT22;53450;42.584;23.366;2023-11-18T07:56:16;1.27;77.07
66594;DHT22;53450;42.584;23.366;2023-11-18T07:58:42;1.24;76.33
66594;DHT22;53450;42.584;23.366;2023-11-18T08:01:11;1.26;76.61
66594;DHT22;53450;42.584;23.366;2023-11-18T08:03:37;1.30;75.93
66594;DHT22;53450;42.584;23.366;2023-11-18T08:06:03;1.32;75.70
66594;DHT22;53450;42.584;23.366;2023-11-18T08:08:32;1.31;76.05
66594;DHT22;53450;42.584;23.366;2023-11-18T08:10:58;1.37;75.87
66594;DHT22;53450;42.584;23.366;2023-11-18T08:13:25;1.34;74.76
66594;DHT22;53450;42.584;23.366;2023-11-18T08:15:51;1.35;75.79
66594;DHT22;53450;42.584;23.366;2023-11-18T08:18:17;1.34;75.02
66594;DHT22;53450;42.584;23.366;2023-11-18T08:20:43;1.31;75.66
66594;DHT22;53450;42.584;23.366;2023-11-18T08:23:09;1.32;74.86
66594;DHT22;53450;42.584;23.366;2023-11-18T08:25:35;1.37;74.78
66594;DHT22;53450;42.584;23.366;2023-11-18T08:28:04;1.38;73.82
66594;DHT22;53450;42.584;23.366;2023-11-18T08:30:30;1.45;74.13
66594;DHT22;53450;42.584;23.366;2023-11-18T08:32:55;1.47;73.62
66594;DHT22;53450;42.584;23.366;2023-11-18T08:35:22;1.60;74.00
66594;DHT22;53450;42.584;23.366;2023-11-18T08:37:48;1.68;73.09
66594;DHT22;53450;42.584;23.366;2023-11-18T08:40:14;1.68;72.94
66594;DHT22;53450;42.584;23.366;2023-11-18T08:42:50;1.68;72.18
66594;DHT22;53450;42.584;23.366;2023-11-18T08:45:33;1.75;72.90
66594;DHT22;53450;42.584;23.366;2023-11-18T08:48:02;1.79;72.15
66594;DHT22;53450;42.584;23.366;2023-11-18T08:50:29;1.87;71.60
66594;DHT22;53450;42.584;23.366;2023-11-18T08:52:56;1.99;71.74
66594;DHT22;53450;42.584;23.366;2023-11-18T08:55:29;1.79;71.97
66594;DHT22;53450;42.584;23.366;2023-11-18T08:58:16;1.73;74.06
66594;DHT22;53450;42.584;23.366;2023-11-18T09:00:46;1.66;73.98
66594;DHT22;53450;42.584;23.366;2023-11-18T09:03:22;1.69;73.67
66594;DHT22;53450;42.584;23.366;2023-11-18T09:06:01;1.72;72.96
66594;DHT22;53450;42.584;23.366;2023-11-18T09:08:37;1.62;72.05
66594;DHT22;53450;42.584;23.366;2023-11-18T09:11:06;1.55;72.68
66594;DHT22;53450;42.584;23.366;2023-11-18T09:13:33;1.63;73.02
66594;DHT22;53450;42.584;23.366;2023-11-18T09:16:07;1.68;72.32
66594;DHT22;53450;42.584;23.366;2023-11-18T09:18:38;1.63;71.82
66594;DHT22;53450;42.584;23.366;2023-11-18T09:21:05;1.72;70.99
66594;DHT22;53450;42.584;23.366;2023-11-18T09:23:32;1.77;70.16
66594;DHT22;53450;42.584;23.366;2023-11-18T09:26:03;1.82;69.72
66594;DHT22;53450;42.584;23.366;2023-11-18T09:28:33;1.85;69.16
66594;DHT22;53450;42.584;23.366;2023-11-18T09:31:01;1.92;69.50
66594;DHT22;53450;42.584;23.366;2023-11-18T09:33:30;2.02;69.57
66594;DHT22;53450;42.584;23.366;2023-11-18T09:36:07;2.02;68.90
66594;DHT22;53450;42.584;23.366;2023-11-18T09:38:35;2.06;69.07
66594;DHT22;53450;42.584;23.366;2023-11-18T09:41:03;2.07;69.26
66594;DHT22;53450;42.584;23.366;2023-11-18T09:43:30;2.07;69.22
66594;DHT22;53450;42.584;23.366;2023-11-18T09:46:07;2.06;68.32
66594;DHT22;53450;42.584;23.366;2023-11-18T09:48:45;2.38;68.25
66594;DHT22;53450;42.584;23.366;2023-11-18T09:51:23;2.35;67.53
66594;DHT22;53450;42.584;23.366;2023-11-18T09:53:50;2.64;67.64
66594;DHT22;53450;42.584;23.366;2023-11-18T09:59:22;2.75;65.99
66594;DHT22;53450;42.584;23.366;2023-11-18T10:01:53;2.64;66.33
66594;DHT22;53450;42.584;23.366;2023-11-18T10:04:23;2.54;67.59
66594;DHT22;53450;42.584;23.366;2023-11-18T10:06:53;2.54;67.75
66594;DHT22;53450;42.584;23.366;2023-11-18T10:09:26;2.47;67.54
66594;DHT22;53450;42.584;23.366;2023-11-18T10:12:18;2.31;67.91
66594;DHT22;53450;42.584;23.366;2023-11-18T10:14:49;2.44;67.26
66594;DHT22;53450;42.584;23.366;2023-11-18T10:17:17;2.84;65.68
66594;DHT22;53450;42.584;23.366;2023-11-18T10:19:55;2.76;64.88
66594;DHT22;53450;42.584;23.366;2023-11-18T10:24:52;2.62;65.28
66594;DHT22;53450;42.584;23.366;2023-11-18T10:27:29;2.49;65.51
66594;DHT22;53450;42.584;23.366;2023-11-18T10:30:02;2.40;65.95
66594;DHT22;53450;42.584;23.366;2023-11-18T10:32:28;2.49;65.50
66594;DHT22;53450;42.584;23.366;2023-11-18T10:34:56;2.38;65.26
66594;DHT22;53450;42.584;23.366;2023-11-18T10:37:22;2.66;65.45
66594;DHT22;53450;42.584;23.366;2023-11-18T10:39:48;2.65;64.82
66594;DHT22;53450;42.584;23.366;2023-11-18T10:42:17;2.91;66.02
66594;DHT22;53450;42.584;23.366;2023-11-18T10:44:54;2.82;65.16
66594;DHT22;53450;42.584;23.366;2023-11-18T10:47:27;2.97;66.10
66594;DHT22;53450;42.584;23.366;2023-11-18T10:49:55;2.81;65.69
66594;DHT22;53450;42.584;23.366;2023-11-18T10:52:22;2.41;66.33
66594;DHT22;53450;42.584;23.366;2023-11-18T10:54:55;2.40;65.72
66594;DHT22;53450;42.584;23.366;2023-11-18T10:57:24;2.37;66.28
66594;DHT22;53450;42.584;23.366;2023-11-18T11:00:03;2.27;66.58
66594;DHT22;53450;42.584;23.366;2023-11-18T11:02:41;2.33;67.64
66594;DHT22;53450;42.584;23.366;2023-11-18T11:05:07;2.26;66.25
66594;DHT22;53450;42.584;23.366;2023-11-18T11:07:33;2.57;65.80
66594;DHT22;53450;42.584;23.366;2023-11-18T11:10:00;2.74;65.87
66594;DHT22;53450;42.584;23.366;2023-11-18T11:12:33;2.85;65.95
66594;DHT22;53450;42.584;23.366;2023-11-18T11:15:05;2.91;65.13
66594;DHT22;53450;42.584;23.366;2023-11-18T11:17:34;3.13;65.67
66594;DHT22;53450;42.584;23.366;2023-11-18T11:20:05;3.24;63.91
66594;DHT22;53450;42.584;23.366;2023-11-18T11:23:23;3.06;64.25
66594;DHT22;53450;42.584;23.366;2023-11-18T11:26:07;2.85;64.93
66594;DHT22;53450;42.584;23.366;2023-11-18T11:31:38;2.48;65.42
66594;DHT22;53450;42.584;23.366;2023-11-18T11:34:17;2.52;65.66
66594;DHT22;53450;42.584;23.366;2023-11-18T11:36:47;2.59;66.34
66594;DHT22;53450;42.584;23.366;2023-11-18T11:39:15;2.59;65.50
66594;DHT22;53450;42.584;23.366;2023-11-18T11:41:45;2.72;65.87
66594;DHT22;53450;42.584;23.366;2023-11-18T11:44:15;2.79;64.64
66594;DHT22;53450;42.584;23.366;2023-11-18T11:46:41;2.93;64.61
66594;DHT22;53450;42.584;23.366;2023-11-18T11:49:10;2.92;64.73
66594;DHT22;53450;42.584;23.366;2023-11-18T11:51:59;2.93;64.91
66594;DHT22;53450;42.584;23.366;2023-11-18T11:54:40;3.06;65.29
66594;DHT22;53450;42.584;23.366;2023-11-18T11:57:10;3.13;64.02
66594;DHT22;53450;42.584;23.366;2023-11-18T12:02:15;3.07;63.95
66594;DHT22;53450;42.584;23.366;2023-11-18T12:04:45;3.24;64.63
66594;DHT22;53450;42.584;23.366;2023-11-18T12:07:11;3.13;64.27
66594;DHT22;53450;42.584;23.366;2023-11-18T12:09:41;3.30;63.36
66594;DHT22;53450;42.584;23.366;2023-11-18T12:12:20;3.17;63.18
66594;DHT22;53450;42.584;23.366;2023-11-18T12:14:59;3.20;62.90
66594;DHT22;53450;42.584;23.366;2023-11-18T12:23:28;3.20;63.76
66594;DHT22;53450;42.584;23.366;2023-11-18T12:25:54;3.09;64.12
66594;DHT22;53450;42.584;23.366;2023-11-18T12:28:24;2.92;62.84
66594;DHT22;53450;42.584;23.366;2023-11-18T12:30:55;2.96;62.66
66594;DHT22;53450;42.584;23.366;2023-11-18T12:33:23;3.10;64.26
66594;DHT22;53450;42.584;23.366;2023-11-18T12:47:06;2.59;65.84
66594;DHT22;53450;42.584;23.366;2023-11-18T12:49:48;2.51;65.97
66594;DHT22;53450;42.584;23.366;2023-11-18T12:52:20;2.48;65.89
66594;DHT22;53450;42.584;23.366;2023-11-18T12:54:49;2.47;66.68
66594;DHT22;53450;42.584;23.366;2023-11-18T12:57:27;2.42;66.20
66594;DHT22;53450;42.584;23.366;2023-11-18T12:59:56;2.52;66.43
66594;DHT22;53450;42.584;23.366;2023-11-18T13:02:22;2.54;66.37
66594;DHT22;53450;42.584;23.366;2023-11-18T13:04:49;2.47;66.90
66594;DHT22;53450;42.584;23.366;2023-11-18T13:07:16;2.41;67.53
66594;DHT22;53450;42.584;23.366;2023-11-18T13:09:46;2.40;67.46
66594;DHT22;53450;42.584;23.366;2023-11-18T13:12:13;2.48;67.65
66594;DHT22;53450;42.584;23.366;2023-11-18T13:14:43;2.51;68.18
66594;DHT22;53450;42.584;23.366;2023-11-18T13:17:10;2.40;69.12
66594;DHT22;53450;42.584;23.366;2023-11-18T13:19:41;2.37;68.92
66594;DHT22;53450;42.584;23.366;2023-11-18T13:22:10;2.44;69.50
66594;DHT22;53450;42.584;23.366;2023-11-18T13:24:38;2.40;69.85
66594;DHT22;53450;42.584;23.366;2023-11-18T13:27:06;2.13;70.23
66594;DHT22;53450;42.584;23.366;2023-11-18T13:29:33;1.89;70.57
66594;DHT22;53450;42.584;23.366;2023-11-18T13:32:00;1.90;71.57
66594;DHT22;53450;42.584;23.366;2023-11-18T13:34:39;1.86;71.55
66594;DHT22;53450;42.584;23.366;2023-11-18T13:37:08;1.86;71.71
66594;DHT22;53450;42.584;23.366;2023-11-18T13:39:34;1.82;71.67
66594;DHT22;53450;42.584;23.366;2023-11-18T13:44:45;1.83;71.37
66594;DHT22;53450;42.584;23.366;2023-11-18T13:47:11;1.83;71.23
66594;DHT22;53450;42.584;23.366;2023-11-18T13:49:38;1.87;71.34
66594;DHT22;53450;42.584;23.366;2023-11-18T13:52:07;1.85;71.56
66594;DHT22;53450;42.584;23.366;2023-11-18T13:54:38;1.80;71.73
66594;DHT22;53450;42.584;23.366;2023-11-18T13:57:04;1.76;72.22
66594;DHT22;53450;42.584;23.366;2023-11-18T13:59:31;1.66;73.03
66594;DHT22;53450;42.584;23.366;2023-11-18T14:01:58;1.66;73.42
66594;DHT22;53450;42.584;23.366;2023-11-18T14:04:24;1.75;74.06
66594;DHT22;53450;42.584;23.366;2023-11-18T14:06:51;1.73;73.89
66594;DHT22;53450;42.584;23.366;2023-11-18T14:09:17;1.62;73.89
66594;DHT22;53450;42.584;23.366;2023-11-18T14:11:47;1.56;73.99
66594;DHT22;53450;42.584;23.366;2023-11-18T14:14:14;1.52;73.52
66594;DHT22;53450;42.584;23.366;2023-11-18T14:16:39;1.56;73.36
66594;DHT22;53450;42.584;23.366;2023-11-18T14:19:05;1.49;73.88
66594;DHT22;53450;42.584;23.366;2023-11-18T14:21:32;1.44;74.11
66594;DHT22;53450;42.584;23.366;2023-11-18T14:23:57;1.39;73.90
66594;DHT22;53450;42.584;23.366;2023-11-18T14:26:27;1.35;74.21
66594;DHT22;53450;42.584;23.366;2023-11-18T14:28:53;1.39;74.24
66594;DHT22;53450;42.584;23.366;2023-11-18T14:31:18;1.45;74.11
66594;DHT22;53450;42.584;23.366;2023-11-18T14:33:44;1.38;74.36
66594;DHT22;53450;42.584;23.366;2023-11-18T14:36:09;1.28;74.90
66594;DHT22;53450;42.584;23.366;2023-11-18T14:38:36;1.20;74.97
66594;DHT22;53450;42.584;23.366;2023-11-18T14:41:03;1.16;75.67
66594;DHT22;53450;42.584;23.366;2023-11-18T14:43:30;1.14;75.32
66594;DHT22;53450;42.584;23.366;2023-11-18T14:45:55;1.17;75.82
66594;DHT22;53450;42.584;23.366;2023-11-18T14:48:21;1.08;75.35
66594;DHT22;53450;42.584;23.366;2023-11-18T14:50:46;1.13;75.31
66594;DHT22;53450;42.584;23.366;2023-11-18T14:53:12;1.14;75.70
66594;DHT22;53450;42.584;23.366;2023-11-18T14:55:38;1.08;75.52
66594;DHT22;53450;42.584;23.366;2023-11-18T14:58:04;1.10;75.35
66594;DHT22;53450;42.584;23.366;2023-11-18T15:00:30;1.11;75.71
66594;DHT22;53450;42.584;23.366;2023-11-18T15:02:59;1.14;75.54
66594;DHT22;53450;42.584;23.366;2023-11-18T15:05:25;1.17;75.49
66594;DHT22;53450;42.584;23.366;2023-11-18T15:07:53;1.17;74.80
66594;DHT22;53450;42.584;23.366;2023-11-18T15:10:24;1.11;74.97
66594;DHT22;53450;42.584;23.366;2023-11-18T15:12:51;1.14;75.43
66594;DHT22;53450;42.584;23.366;2023-11-18T15:15:24;1.13;76.00
66594;DHT22;53450;42.584;23.366;2023-11-18T15:18:01;1.17;75.85
66594;DHT22;53450;42.584;23.366;2023-11-18T15:20:30;1.07;75.41
66594;DHT22;53450;42.584;23.366;2023-11-18T15:22:56;1.07;75.52
66594;DHT22;53450;42.584;23.366;2023-11-18T15:25:22;1.07;75.84
66594;DHT22;53450;42.584;23.366;2023-11-18T15:27:48;1.13;75.58
66594;DHT22;53450;42.584;23.366;2023-11-18T15:30:15;1.11;75.65
66594;DHT22;53450;42.584;23.366;2023-11-18T15:32:46;1.11;74.97
66594;DHT22;53450;42.584;23.366;2023-11-18T15:35:13;1.10;75.65
66594;DHT22;53450;42.584;23.366;2023-11-18T15:37:40;1.18;74.92
66594;DHT22;53450;42.584;23.366;2023-11-18T15:40:11;1.20;74.22
66594;DHT22;53450;42.584;23.366;2023-11-18T15:42:41;1.20;74.70
66594;DHT22;53450;42.584;23.366;2023-11-18T15:45:09;1.16;74.82
66594;DHT22;53450;42.584;23.366;2023-11-18T15:47:39;1.16;74.45
66594;DHT22;53450;42.584;23.366;2023-11-18T15:50:06;1.14;74.14
66594;DHT22;53450;42.584;23.366;2023-11-18T15:52:35;1.20;73.98
66594;DHT22;53450;42.584;23.366;2023-11-18T15:55:02;1.32;73.94
66594;DHT22;53450;42.584;23.366;2023-11-18T15:57:41;1.28;72.88
66594;DHT22;53450;42.584;23.366;2023-11-18T16:00:09;1.28;72.99
66594;DHT22;53450;42.584;23.366;2023-11-18T16:02:43;1.30;72.41
66594;DHT22;53450;42.584;23.366;2023-11-18T16:05:13;1.32;72.04
66594;DHT22;53450;42.584;23.366;2023-11-18T16:08:54;1.35;71.20
66594;DHT22;53450;42.584;23.366;2023-11-18T16:11:19;1.39;71.48